Startpagina
METAR-TAF:

METAR-TAF

Vliegvelden :

Aéroport de Luxembourg

Luxemburg, Luxemburg

breedte: 49-37N, lengte: 006-13E, hoogte: 376 m

Actueel weer

Dit bericht is 31 minuten geleden gemaakt, om 07:50 UTC
Wind 2 kt uit variabele richting
Temperatuur 11°C
Vochtigheid 62%
Druk 1028 hPa
Zicht: 9000 m

METAR: ELLX 230750Z VRB02KT 9000 NSC 11/04 Q1028 NOSIG

Tijdstip: 09:21 (08:21 UTC)

Verwachting

Dit bericht is 3 uur en het 21 minuten geleden gemaakt, om 05:00 UTC
Verwachting geldig van 23 om 06 UTC tot 24 om 12 UTC
Wind 5 kt uit het noordnoordwesten
Zicht 10 km of meer
geen wolken onder 1500 m en geen cumulonimbus
Kans 40% :
Tijdelijke
van 23 om 06 UTC tot 23 om 08 UTC
Zicht: 5000 m
nevel
Wijzigt naar
van 23 om 16 UTC tot 23 om 18 UTC
Wind 7 kt uit het noordoosten
Tijdelijke
van 24 om 02 UTC tot 24 om 08 UTC
Zicht: 5000 m
nevel

TAF: ELLX 230500Z 2306/2412 34005KT CAVOK PROB40 TEMPO 2306/2308 5000 BR BECMG 2316/2318 04007KT TEMPO 2402/2408 5000 BR

Waarnemingen en weersverwachtingen van meer dan 4000 vliegvelden (METAR en TAF).

De beschikbare stations zijn de gele en rode punten op de kaart.

Ga met uw muis naar het station om de naam te zien.

Klik dan om waarnemingen en weersverwachtingen te zien.

kaart wijzigen: klik op de groene knoppen met een zwart kruis om in te zoomen, op de groene knop met een streepje om uit te zoomen of op de groene pijlen voor aangrenzende kaarten.


METAR-TAF: